Time;durP1;ratioP1;P1;durP2;ratioP2;P2;SDS_P1;SDS_P2;PMS_P1;PMS_P2;Temp;Humidity;BMP_temperature;BMP_pressure;BME280_temperature;BME280_humidity;BME280_pressure;Samples;Min_cycle;Max_cycle;Signal;HPM_P1;HPM_P2
2021/05/18 00:01:16;;;;;;;20.40;12.05;;;;;;;14.65;60.65;101061.78;5047274;28;20025;-85
2021/05/18 00:03:42;;;;;;;21.15;10.95;;;;;;;14.67;60.96;101054.63;5037476;28;20477;-85
2021/05/18 00:06:09;;;;;;;21.48;11.52;;;;;;;14.69;60.94;101066.09;5045049;28;20112;-85
2021/05/18 00:11:42;;;;;;;24.30;11.18;;;;;;;14.69;60.78;101061.66;5044886;28;20030;-85
2021/05/18 00:11:53;;;;;;;25.52;11.43;;;;;;;14.69;61.13;101056.31;5045578;28;20392;-85
2021/05/18 00:14:08;;;;;;;29.55;12.32;;;;;;;14.74;60.91;101057.94;5033903;28;20036;-85
2021/05/18 00:16:35;;;;;;;21.00;12.05;;;;;;;14.72;61.19;101066.00;5038262;28;20030;-85
2021/05/18 00:19:02;;;;;;;19.77;11.52;;;;;;;14.72;60.77;101052.66;5044713;28;20029;-85
2021/05/18 00:21:29;;;;;;;27.38;11.95;;;;;;;14.72;60.76;101061.53;5048560;28;20037;-85
2021/05/18 00:23:55;;;;;;;26.35;11.65;;;;;;;14.72;60.86;101053.53;5048671;28;20037;-85
2021/05/18 00:26:23;;;;;;;19.48;10.77;;;;;;;14.74;61.10;101047.28;5042376;28;20033;-85
2021/05/18 00:28:49;;;;;;;18.00;11.07;;;;;;;14.74;61.25;101052.59;5044996;28;20167;-85
2021/05/18 00:31:16;;;;;;;23.25;11.18;;;;;;;14.75;60.99;101047.22;5049136;28;20060;-85
2021/05/18 00:33:43;;;;;;;26.27;12.27;;;;;;;14.74;61.28;101056.13;5048808;28;20037;-85
2021/05/18 00:36:10;;;;;;;22.98;10.25;;;;;;;14.76;61.43;101051.63;5043928;28;20091;-85
2021/05/18 00:38:37;;;;;;;23.42;10.95;;;;;;;14.76;61.46;101040.97;5033371;28;20040;-85
2021/05/18 00:41:05;;;;;;;20.30;11.10;;;;;;;14.77;61.36;101056.03;5034918;28;20021;-85
2021/05/18 00:43:35;;;;;;;17.65;11.45;;;;;;;14.78;61.45;101048.91;5034875;28;20440;-84
2021/05/18 00:46:03;;;;;;;17.70;10.82;;;;;;;14.77;61.48;101048.03;5022963;28;20034;-83
2021/05/18 00:48:30;;;;;;;22.67;10.88;;;;;;;14.75;61.47;101049.88;5028906;28;20044;-85
2021/05/18 00:51:00;;;;;;;19.75;10.98;;;;;;;14.79;61.59;101054.22;5033826;28;20057;-85
2021/05/18 00:53:28;;;;;;;24.23;11.35;;;;;;;14.74;61.69;101049.94;5034330;28;20021;-84
2021/05/18 00:58:42;;;;;;;20.67;10.90;;;;;;;14.73;62.01;101051.75;5029900;28;20401;-85
2021/05/18 01:03:51;;;;;;;20.38;10.45;;;;;;;14.68;62.14;101065.22;5069508;28;20436;-84
2021/05/18 01:06:34;;;;;;;24.17;11.18;;;;;;;14.63;62.29;101060.94;5069663;28;20033;-83
2021/05/18 01:09:13;;;;;;;22.70;11.48;;;;;;;14.60;62.12;101067.22;5065964;28;20033;-84
2021/05/18 01:11:42;;;;;;;17.13;10.80;;;;;;;14.55;62.42;101070.06;5066137;28;20033;-84
2021/05/18 01:14:14;;;;;;;28.00;12.52;;;;;;;14.55;62.38;101075.41;5067506;28;20045;-84
2021/05/18 01:16:45;;;;;;;28.75;11.57;;;;;;;14.49;62.32;101069.38;5069661;28;20041;-83
2021/05/18 01:19:14;;;;;;;27.17;11.63;;;;;;;14.55;62.19;101071.84;5059828;28;20031;-84
2021/05/18 01:21:41;;;;;;;21.23;11.57;;;;;;;14.46;62.59;101074.84;5061579;28;20029;-84
2021/05/18 01:24:08;;;;;;;26.00;11.52;;;;;;;14.45;62.33;101068.63;5063850;28;20071;-84
2021/05/18 01:26:37;;;;;;;27.35;11.85;;;;;;;14.47;62.37;101069.44;5069537;28;20028;-83
2021/05/18 01:29:06;;;;;;;22.95;12.55;;;;;;;14.45;62.47;101076.63;5069291;28;20376;-83
2021/05/18 01:31:33;;;;;;;24.40;12.85;;;;;;;14.37;62.97;101073.34;5065633;28;20422;-83
2021/05/18 01:34:03;;;;;;;26.45;13.35;;;;;;;14.37;63.37;101076.00;5059625;28;20428;-83
2021/05/18 01:36:32;;;;;;;28.63;12.70;;;;;;;14.31;63.60;101070.88;5059309;28;20448;-83
2021/05/18 01:39:10;;;;;;;29.75;13.10;;;;;;;14.33;63.36;101074.34;5069042;28;20543;-83
2021/05/18 01:44:23;;;;;;;23.83;14.73;;;;;;;14.24;63.56;101073.72;5062979;28;20037;-82
2021/05/18 01:46:50;;;;;;;27.98;14.82;;;;;;;14.21;64.30;101076.47;5069130;28;20029;-83
2021/05/18 01:49:16;;;;;;;24.38;13.25;;;;;;;14.22;64.31;101075.56;5068016;28;20040;-83
2021/05/18 01:51:47;;;;;;;30.90;16.02;;;;;;;14.27;64.53;101074.53;5059499;28;20054;-83
2021/05/18 01:54:18;;;;;;;27.58;14.38;;;;;;;14.27;64.40;101069.19;5061435;28;20488;-83
2021/05/18 01:56:54;;;;;;;31.92;15.43;;;;;;;14.26;64.62;101078.16;5068088;28;20040;-83
2021/05/18 01:59:23;;;;;;;28.90;15.00;;;;;;;14.29;65.16;101067.38;5068534;28;20025;-83
2021/05/18 02:01:53;;;;;;;30.70;16.40;;;;;;;14.28;65.09;101076.28;5056834;28;20349;-83
2021/05/18 02:04:25;;;;;;;27.30;16.02;;;;;;;14.31;64.98;101073.53;5058787;28;20083;-84
2021/05/18 02:06:53;;;;;;;33.90;16.25;;;;;;;14.27;65.34;101074.53;5066013;28;20062;-83
2021/05/18 02:09:19;;;;;;;30.92;16.85;;;;;;;14.28;65.20;101076.28;5064639;28;20032;-84
2021/05/18 02:11:47;;;;;;;32.60;17.85;;;;;;;14.30;65.29;101071.78;5066863;28;20047;-82
2021/05/18 02:14:22;;;;;;;32.22;18.05;;;;;;;14.30;64.96;101075.31;5047680;28;20095;-82
2021/05/18 02:16:49;;;;;;;33.97;18.13;;;;;;;14.24;65.58;101081.72;5049599;28;20037;-83
2021/05/18 02:19:28;;;;;;;37.53;19.67;;;;;;;14.26;65.25;101080.81;5053286;28;20032;-83
2021/05/18 02:22:06;;;;;;;35.30;19.52;;;;;;;14.29;65.20;101078.88;5053869;28;20108;-83
2021/05/18 02:27:20;;;;;;;34.65;19.00;;;;;;;14.23;65.71;101079.09;5075152;28;20389;-83
2021/05/18 02:29:46;;;;;;;36.63;18.30;;;;;;;14.18;66.03;101081.03;5060661;28;20102;-82
2021/05/18 02:32:13;;;;;;;39.15;20.65;;;;;;;14.18;65.79;101081.91;5059416;28;20389;-82
2021/05/18 02:34:39;;;;;;;40.47;20.05;;;;;;;14.20;65.81;101082.72;5040961;28;20069;-83
2021/05/18 02:37:06;;;;;;;31.73;18.38;;;;;;;14.18;65.42;101081.91;5044449;28;20488;-83
2021/05/18 02:39:32;;;;;;;37.15;21.38;;;;;;;14.18;65.65;101087.25;5032019;28;20034;-83
2021/05/18 02:41:59;;;;;;;38.28;19.50;;;;;;;14.19;65.99;101088.09;5032692;28;20037;-83
2021/05/18 02:44:36;;;;;;;43.45;20.35;;;;;;;14.23;66.03;101085.31;5049536;28;20104;-83
2021/05/18 02:49:49;;;;;;;33.08;20.70;;;;;;;14.16;66.12;101088.22;5044002;28;20435;-83
2021/05/18 02:52:15;;;;;;;41.50;20.42;;;;;;;14.18;65.98;101089.91;5043913;28;20467;-83
2021/05/18 02:54:46;;;;;;;34.28;19.15;;;;;;;14.18;66.08;101089.91;5046332;28;20056;-83
2021/05/18 02:57:16;;;;;;;39.38;20.85;;;;;;;14.20;66.27;101090.72;5049064;28;20040;-83
2021/05/18 02:59:43;;;;;;;34.85;19.33;;;;;;;14.19;66.18;101089.00;5048897;28;20430;-83
2021/05/18 03:02:09;;;;;;;42.47;20.15;;;;;;;14.20;66.40;101096.03;5048976;28;20029;-82
2021/05/18 03:04:36;;;;;;;41.22;22.15;;;;;;;14.22;66.25;101094.22;5049188;28;20178;-83
2021/05/18 03:07:03;;;;;;;46.92;21.15;;;;;;;14.20;66.00;101100.50;5048916;28;20029;-83
2021/05/18 03:09:29;;;;;;;45.33;22.60;;;;;;;14.20;66.42;101098.72;5048846;28;20029;-82
2021/05/18 03:11:56;;;;;;;38.45;21.95;;;;;;;14.22;66.53;101096.88;5048859;28;20023;-83
2021/05/18 03:14:23;;;;;;;43.58;22.15;;;;;;;14.19;66.72;101104.09;5049049;28;20041;-83
2021/05/18 03:16:50;;;;;;;38.83;21.65;;;;;;;14.19;66.42;101101.44;5049036;28;20083;-83
2021/05/18 03:19:16;;;;;;;42.22;22.92;;;;;;;14.28;66.15;101102.94;5048657;28;20056;-82
2021/05/18 03:21:44;;;;;;;36.58;21.27;;;;;;;14.29;66.22;101110.03;5048661;28;20491;-83
2021/05/18 03:24:11;;;;;;;35.15;22.33;;;;;;;14.24;66.23;101102.16;5048757;28;20052;-83
2021/05/18 03:26:47;;;;;;;39.92;23.33;;;;;;;14.24;65.90;101107.50;5048604;28;20065;-83
2021/05/18 03:29:24;;;;;;;36.22;22.77;;;;;;;14.23;66.34;101106.63;5048670;28;20033;-83
2021/05/18 03:34:39;;;;;;;40.47;22.73;;;;;;;14.23;65.85;101114.63;5048303;28;20064;-82
2021/05/18 03:37:14;;;;;;;40.40;22.88;;;;;;;14.22;66.21;101109.34;5043622;28;20041;-83
2021/05/18 03:39:42;;;;;;;40.65;23.15;;;;;;;14.20;66.44;101112.03;5035019;28;20392;-82
2021/05/18 03:45:02;;;;;;;48.50;26.65;;;;;;;14.27;66.15;101111.84;5084610;28;20423;-83
2021/05/18 03:58:42;;;;;;;47.97;24.08;;;;;;;14.34;66.29;101114.28;5064870;28;20045;-83
2021/05/18 04:04:04;;;;;;;37.75;21.80;;;;;;;14.39;66.20;101122.13;5036596;28;19999;-83
2021/05/18 04:17:34;;;;;;;39.00;21.98;;;;;;;14.38;66.19;101131.94;5067701;28;20388;-84
2021/05/18 04:20:14;;;;;;;42.20;22.10;;;;;;;14.40;66.20;101132.75;5060303;28;20024;-82
2021/05/18 04:40:31;;;;;;;41.85;21.40;;;;;;;14.34;66.13;101148.94;5041892;28;20037;-82
2021/05/18 04:50:44;;;;;;;36.03;21.73;;;;;;;14.44;66.00;101157.50;5032963;28;20061;-83
2021/05/18 04:53:19;;;;;;;32.75;20.02;;;;;;;14.47;65.74;101162.75;5045191;28;20500;-84
2021/05/18 05:02:05;;;;;;;31.92;17.70;;;;;;;14.57;65.79;101161.53;5069548;28;20576;-84
2021/05/18 05:06:11;;;;;;;34.03;20.23;;;;;;;14.61;66.00;101164.13;5039962;28;20126;-83
2021/05/18 05:07:07;;;;;;;30.13;20.15;;;;;;;14.60;66.15;101167.72;5039807;28;20042;-84
2021/05/18 05:09:36;;;;;;;32.03;19.45;;;;;;;14.64;66.01;101174.69;5029906;28;20054;-84
2021/05/18 05:14:49;;;;;;;30.02;19.85;;;;;;;14.60;65.87;101173.03;5037912;28;20042;-84
2021/05/18 05:17:16;;;;;;;25.08;17.23;;;;;;;14.61;65.83;101174.78;5043057;28;20026;-83
2021/05/18 05:19:42;;;;;;;32.08;17.95;;;;;;;14.66;65.70;101168.41;5039001;28;20030;-85
2021/05/18 05:22:08;;;;;;;42.53;19.08;;;;;;;14.61;65.50;101174.78;5034917;28;20040;-83
2021/05/18 05:24:37;;;;;;;30.90;18.45;;;;;;;14.56;65.77;101172.25;5042856;28;20033;-84
2021/05/18 05:27:04;;;;;;;34.05;19.95;;;;;;;14.59;65.54;101184.63;5039102;28;20040;-83
2021/05/18 05:29:30;;;;;;;32.97;18.77;;;;;;;14.62;65.60;101182.72;5042914;28;20069;-83
2021/05/18 05:31:56;;;;;;;31.48;18.50;;;;;;;14.69;65.67;101184.31;5044081;28;20052;-83
2021/05/18 05:34:23;;;;;;;24.73;15.27;;;;;;;14.69;65.74;101186.09;5036248;28;20028;-83
2021/05/18 05:36:49;;;;;;;28.30;15.32;;;;;;;14.60;65.78;101192.56;5032139;28;20030;-83
2021/05/18 05:39:22;;;;;;;23.60;13.95;;;;;;;14.62;65.67;101189.88;5033613;28;20112;-82
2021/05/18 05:41:51;;;;;;;25.52;13.48;;;;;;;14.75;65.23;101191.25;5041215;28;20030;-83
2021/05/18 05:44:17;;;;;;;21.45;14.20;;;;;;;14.77;65.12;101193.88;5033628;28;20032;-82
2021/05/18 05:46:43;;;;;;;19.48;12.95;;;;;;;14.79;64.96;101182.25;5045516;28;20435;-84
2021/05/18 05:49:10;;;;;;;19.23;12.68;;;;;;;14.78;64.79;101180.50;5040765;28;20033;-84
2021/05/18 05:51:36;;;;;;;17.60;11.57;;;;;;;14.75;64.14;101185.91;5040403;28;20043;-83
2021/05/18 05:54:03;;;;;;;18.52;12.55;;;;;;;14.67;64.32;101193.31;5042154;28;20033;-83
2021/05/18 05:56:49;;;;;;;24.73;13.48;;;;;;;14.57;64.28;101198.88;5029647;28;20497;-89
2021/05/18 05:59:18;;;;;;;19.02;11.82;;;;;;;14.54;64.42;101204.31;5067682;22;20029;-82
2021/05/18 06:01:47;;;;;;;20.52;12.40;;;;;;;14.60;64.43;101207.72;5047098;28;20498;-84
2021/05/18 06:04:14;;;;;;;22.77;12.15;;;;;;;14.58;64.41;101213.09;5036680;28;20505;-85
2021/05/18 06:06:40;;;;;;;23.80;13.30;;;;;;;14.59;64.29;101216.63;5039102;28;20041;-82
2021/05/18 06:09:07;;;;;;;19.02;12.98;;;;;;;14.68;64.21;101219.06;5037025;28;20053;-82
2021/05/18 06:34:18;;;;;;;17.85;12.57;;;;;;;15.61;62.53;101240.03;5045142;28;20045;-84
2021/05/18 06:42:46;;;;;;;20.52;12.82;;;;;;;15.71;61.75;101245.94;5040328;28;20819;-82
2021/05/18 06:47:58;;;;;;;20.83;13.20;;;;;;;15.62;61.30;101250.66;5009710;28;20041;-83
2021/05/18 06:50:29;;;;;;;24.58;14.52;;;;;;;15.53;61.30;101257.19;5009635;28;20029;-85
2021/05/18 06:52:56;;;;;;;20.50;13.25;;;;;;;15.51;61.14;101256.38;5009597;28;20022;-87
2021/05/18 06:55:27;;;;;;;20.73;13.10;;;;;;;15.58;61.23;101258.84;5009440;28;20703;-83
2021/05/18 06:58:11;;;;;;;20.65;13.40;;;;;;;15.63;61.20;101268.44;5009720;28;20032;-82
2021/05/18 07:00:39;;;;;;;17.80;11.88;;;;;;;15.57;61.24;101262.44;5008928;28;20073;-81
2021/05/18 07:03:10;;;;;;;21.42;12.65;;;;;;;15.56;60.92;101269.56;5008223;28;20041;-83
2021/05/18 07:05:44;;;;;;;20.15;13.25;;;;;;;15.57;60.83;101267.78;4989403;28;20112;-82
2021/05/18 07:11:04;;;;;;;18.85;12.05;;;;;;;15.87;60.25;101281.03;5114208;27;20815;-82
2021/05/18 07:13:30;;;;;;;15.55;11.85;;;;;;;15.99;60.15;101270.75;5091225;28;20039;-90
2021/05/18 07:15:56;;;;;;;16.52;11.27;;;;;;;16.02;60.31;101272.44;5088770;28;20028;-82
2021/05/18 07:18:23;;;;;;;19.25;11.57;;;;;;;16.21;59.61;101285.16;5089223;28;20446;-82
2021/05/18 07:20:49;;;;;;;17.67;10.05;;;;;;;16.30;59.41;101284.84;5076991;28;20029;-80
2021/05/18 07:23:17;;;;;;;14.73;9.23;;;;;;;16.35;59.18;101282.84;5078374;28;20101;-83
2021/05/18 07:25:43;;;;;;;19.13;9.27;;;;;;;16.42;58.50;101287.03;5076673;28;20135;-87
2021/05/18 07:28:11;;;;;;;19.15;10.98;;;;;;;16.51;58.25;101277.81;5071603;28;20025;-86
2021/05/18 07:30:39;;;;;;;49.53;31.52;;;;;;;16.70;58.01;101282.44;5069719;28;20056;-87
2021/05/18 07:33:06;;;;;;;18.60;11.70;;;;;;;16.70;57.92;101288.66;5072845;28;20388;-85
2021/05/18 07:35:33;;;;;;;16.80;11.07;;;;;;;16.65;57.79;101279.94;5071822;28;20024;-85
2021/05/18 07:37:59;;;;;;;18.75;10.80;;;;;;;16.72;57.14;101286.78;5072259;28;20021;-84
2021/05/18 07:40:25;;;;;;;16.50;11.07;;;;;;;16.65;57.37;101291.50;5075949;28;20036;-85
2021/05/18 07:42:52;;;;;;;15.32;8.82;;;;;;;16.65;57.26;101285.31;5074636;28;20078;-84
2021/05/18 07:45:23;;;;;;;15.25;10.70;;;;;;;16.63;56.78;101295.19;5070195;28;20469;-84
2021/05/18 07:47:49;;;;;;;14.23;10.52;;;;;;;16.61;56.99;101297.03;5075085;28;20067;-84
2021/05/18 07:50:23;;;;;;;17.77;10.95;;;;;;;16.63;56.94;101298.72;5073258;28;20112;-86
2021/05/18 08:02:17;;;;;;;12.77;7.28;;;;;;;16.60;56.59;101303.34;5084065;28;20041;-90
2021/05/18 08:05:18;;;;;;;11.82;8.52;;;;;;;16.54;56.24;101304.44;5086271;28;20039;-94
2021/05/18 08:06:39;;;;;;;10.20;7.03;;;;;;;16.65;56.13;101301.34;5087691;28;20541;-91
2021/05/18 08:09:06;;;;;;;8.25;6.65;;;;;;;16.56;55.51;101310.59;5087910;28;20028;-89
2021/05/18 08:11:32;;;;;;;10.25;7.10;;;;;;;16.66;55.18;101303.09;5087660;28;20486;-90
2021/05/18 08:13:58;;;;;;;13.60;7.25;;;;;;;16.72;55.01;101308.19;5087799;28;20097;-89
2021/05/18 08:19:50;;;;;;;9.00;6.35;;;;;;;16.82;54.11;101309.59;5083465;28;20076;-87
2021/05/18 09:47:22;;;;;;;4.03;2.75;;;;;;;18.82;44.25;101316.38;5032031;28;20065;-93
2021/05/18 10:37:50;;;;;;;3.55;2.60;;;;;;;18.86;41.18;101334.94;5098711;27;20122;-87
2021/05/18 10:43:23;;;;;;;7.00;2.40;;;;;;;19.05;41.89;101335.00;5045610;28;20453;-86
2021/05/18 10:57:19;;;;;;;5.57;2.95;;;;;;;19.59;40.36;101341.34;5076893;27;1814013;-83
2021/05/18 11:00:17;;;;;;;5.68;2.17;;;;;;;19.52;39.63;101343.47;5135939;27;20039;-83
2021/05/18 11:02:43;;;;;;;4.05;2.03;;;;;;;19.64;39.79;101340.19;5137127;28;20438;-83
2021/05/18 11:05:11;;;;;;;3.50;2.00;;;;;;;19.66;38.71;101342.78;5108976;28;20032;-85
2021/05/18 11:07:43;;;;;;;3.58;2.30;;;;;;;19.36;37.64;101341.53;5111296;28;20032;-87
2021/05/18 11:23:27;;;;;;;4.18;1.80;;;;;;;19.40;39.09;101345.84;5111066;27;20367;-82
2021/05/18 11:26:04;;;;;;;2.60;1.60;;;;;;;19.51;37.28;101356.03;5112579;28;20148;-91
2021/05/18 11:31:19;;;;;;;4.90;2.33;;;;;;;19.64;37.29;101355.41;5092085;27;20387;-88
2021/05/18 11:33:49;;;;;;;9.57;2.63;;;;;;;19.87;37.58;101354.31;5092832;28;20032;-85
2021/05/18 11:36:19;;;;;;;4.43;2.45;;;;;;;19.88;37.81;101358.75;5085614;28;20479;-87
2021/05/18 11:39:07;;;;;;;4.22;3.53;;;;;;;19.93;40.13;101362.06;5076246;28;20051;-85
2021/05/18 11:41:37;;;;;;;4.70;2.97;;;;;;;20.23;40.76;101366.78;5080288;28;20433;-84
2021/05/18 11:44:05;;;;;;;5.97;2.60;;;;;;;20.18;40.41;101367.03;5068047;28;20083;-82
2021/05/18 11:46:34;;;;;;;8.30;4.13;;;;;;;20.02;38.85;101376.84;5070282;28;20032;-82
2021/05/18 11:49:11;;;;;;;5.07;2.60;;;;;;;20.41;37.99;101362.28;5078426;28;20059;-85
2021/05/18 11:51:56;;;;;;;4.47;2.53;;;;;;;20.04;38.75;101367.75;5080762;28;20472;-86
2021/05/18 11:54:24;;;;;;;4.85;2.45;;;;;;;20.09;38.57;101382.78;5059176;28;20473;-83
2021/05/18 11:56:52;;;;;;;5.30;2.60;;;;;;;19.95;39.08;101372.72;5056122;28;20696;-83
2021/05/18 11:59:20;;;;;;;6.35;2.13;;;;;;;20.04;38.94;101383.03;5059192;28;20022;-82
2021/05/18 12:01:53;;;;;;;3.50;2.50;;;;;;;19.87;38.24;101389.25;5080125;28;20055;-83
2021/05/18 12:04:22;;;;;;;5.78;2.17;;;;;;;19.69;38.99;101394.59;5082855;28;20031;-83
2021/05/18 12:09:44;;;;;;;5.25;2.30;;;;;;;19.26;39.60;101395.81;5053998;27;772951;-83
2021/05/18 12:12:14;;;;;;;5.65;2.65;;;;;;;19.47;40.02;101383.16;5086204;28;20040;-82
2021/05/18 12:17:25;;;;;;;1.98;1.70;;;;;;;19.88;37.34;101382.94;5071268;27;20409;-82
2021/05/18 12:19:52;;;;;;;3.55;1.80;;;;;;;19.79;36.88;101386.03;5069994;28;20079;-83
2021/05/18 12:22:18;;;;;;;3.95;1.63;;;;;;;19.85;35.97;101391.16;5065571;28;20698;-83
2021/05/18 12:24:44;;;;;;;1.92;1.42;;;;;;;20.02;37.17;101384.91;5049704;28;20037;-83
2021/05/18 12:27:11;;;;;;;4.38;2.05;;;;;;;20.10;36.59;101382.72;5049632;28;20044;-81
2021/05/18 12:37:54;;;;;;;3.97;1.70;;;;;;;20.50;35.56;101371.69;5130814;27;20390;-82
2021/05/18 12:40:36;;;;;;;4.32;1.77;;;;;;;20.45;35.00;101400.63;5130915;27;20104;-83
2021/05/18 12:43:14;;;;;;;4.53;1.67;;;;;;;20.58;34.16;101380.19;5120612;27;20030;-82
2021/05/18 12:45:41;;;;;;;5.80;1.38;;;;;;;20.50;35.25;101388.69;5109734;28;20031;-83
2021/05/18 12:48:09;;;;;;;3.63;1.15;;;;;;;20.47;34.68;101401.44;5109750;28;20069;-83
2021/05/18 12:53:23;;;;;;;3.15;1.08;;;;;;;20.79;34.82;101377.34;5058529;28;20406;-82
2021/05/18 12:55:49;;;;;;;4.07;1.17;;;;;;;20.67;35.02;101382.41;5049766;28;20045;-84
2021/05/18 12:58:28;;;;;;;3.15;1.27;;;;;;;20.74;33.66;101382.13;5049579;28;20025;-81
2021/05/18 13:01:16;;;;;;;3.10;1.25;;;;;;;20.83;33.54;101387.84;5049763;28;20029;-83
2021/05/18 13:03:43;;;;;;;1.67;1.20;;;;;;;21.07;34.02;101387.47;5045954;28;20025;-84
2021/05/18 13:06:10;;;;;;;3.13;1.20;;;;;;;21.09;34.41;101382.00;5043414;28;20035;-83
2021/05/18 13:08:39;;;;;;;4.07;1.10;;;;;;;21.09;34.61;101385.53;5043775;28;20021;-83
2021/05/18 13:13:56;;;;;;;4.05;1.05;;;;;;;21.01;35.36;101383.28;5055762;27;20933;-83
2021/05/18 13:19:07;;;;;;;2.45;0.98;;;;;;;20.82;35.30;101387.94;5127007;27;780976;-82
2021/05/18 13:26:25;;;;;;;3.47;1.85;;;;;;;20.92;34.98;101393.69;5096356;27;20353;-84
2021/05/18 13:27:05;;;;;;;4.82;1.40;;;;;;;21.05;34.51;101408.22;5086654;28;20050;-82
2021/05/18 13:29:34;;;;;;;3.92;1.30;;;;;;;20.96;33.78;101411.41;5088680;28;20036;-82
2021/05/18 13:32:03;;;;;;;3.17;1.60;;;;;;;20.87;35.88;101412.78;5089262;28;20471;-82
2021/05/18 13:34:29;;;;;;;3.13;1.65;;;;;;;20.71;35.32;101412.78;5089452;28;20526;-82
2021/05/18 13:36:55;;;;;;;3.28;1.77;;;;;;;20.77;35.75;101403.47;5086421;28;20380;-83
2021/05/18 13:39:24;;;;;;;2.97;1.30;;;;;;;20.64;35.39;101412.19;5089120;28;20046;-83
2021/05/18 13:41:50;;;;;;;3.80;1.50;;;;;;;20.48;35.23;101411.25;5089062;28;20070;-83
2021/05/18 13:44:17;;;;;;;3.78;1.60;;;;;;;20.49;34.76;101413.00;5089309;28;20024;-84
2021/05/18 13:46:46;;;;;;;2.53;1.40;;;;;;;20.48;35.23;101409.44;5089891;28;20074;-81
2021/05/18 13:49:14;;;;;;;6.50;1.65;;;;;;;20.68;36.09;101419.13;5098064;28;20384;-83
2021/05/18 13:51:42;;;;;;;4.60;1.50;;;;;;;20.77;35.58;101411.56;5084605;28;20107;-83
2021/05/18 13:54:08;;;;;;;4.40;1.42;;;;;;;20.72;35.80;101416.31;5087446;28;20044;-84
2021/05/18 13:56:34;;;;;;;2.40;1.13;;;;;;;20.73;36.07;101420.75;5092279;28;20081;-84
2021/05/18 13:59:00;;;;;;;1.60;0.77;;;;;;;21.11;35.61;101409.69;5097740;28;20177;-84
2021/05/18 14:01:27;;;;;;;1.30;1.02;;;;;;;21.05;36.59;101410.03;5091117;28;20383;-83
2021/05/18 14:03:54;;;;;;;3.00;1.30;;;;;;;21.26;36.16;101406.16;5081902;28;20491;-83
2021/05/18 14:06:22;;;;;;;2.90;1.20;;;;;;;21.33;36.58;101410.25;5096909;28;20028;-78
2021/05/18 14:08:48;;;;;;;5.57;1.55;;;;;;;21.22;36.55;101411.81;5086474;28;20040;-82
2021/05/18 14:11:20;;;;;;;1.70;1.27;;;;;;;21.24;35.97;101409.91;5083869;28;20064;-85
2021/05/18 14:13:52;;;;;;;4.22;1.20;;;;;;;21.07;36.13;101413.53;5075762;28;20063;-79
2021/05/18 14:16:22;;;;;;;2.47;1.08;;;;;;;21.16;36.63;101402.25;5089973;28;20032;-83
2021/05/18 14:18:54;;;;;;;2.20;1.08;;;;;;;21.14;37.51;101409.53;5079191;28;20039;-88
2021/05/18 14:21:23;;;;;;;3.83;1.05;;;;;;;21.27;36.50;101417.81;5087169;28;20399;-87
2021/05/18 14:26:30;;;;;;;5.68;2.70;;;;;;;20.89;36.71;101418.13;5075626;27;20439;-84
2021/05/18 14:28:57;;;;;;;4.20;2.08;;;;;;;20.90;36.35;101420.72;5064911;28;20098;-84
2021/05/18 14:31:25;;;;;;;3.45;1.10;;;;;;;20.99;37.19;101416.66;5061996;28;20037;-81
2021/05/18 14:33:54;;;;;;;3.13;0.80;;;;;;;20.89;36.53;101421.66;5049066;28;20025;-83
2021/05/18 14:36:21;;;;;;;2.72;1.02;;;;;;;21.16;36.41;101408.50;5037102;28;20476;-84
2021/05/18 14:38:48;;;;;;;4.32;0.90;;;;;;;21.21;36.40;101420.84;5044496;28;20029;-83
2021/05/18 14:44:12;;;;;;;3.03;1.17;;;;;;;21.78;35.56;101409.53;5080470;27;20376;-84
2021/05/18 14:46:52;;;;;;;4.80;1.38;;;;;;;21.93;34.96;101424.84;5061934;28;20028;-85
2021/05/18 14:54:56;;;;;;;1.55;1.20;;;;;;;22.01;34.43;101423.50;5068213;28;20045;-89
2021/05/18 14:57:24;;;;;;;3.95;1.00;;;;;;;22.10;33.93;101421.13;5071532;28;20067;-90
2021/05/18 14:59:50;;;;;;;1.70;0.80;;;;;;;22.23;33.88;101413.19;5072903;28;20041;-91
2021/05/18 15:02:17;;;;;;;1.08;0.60;;;;;;;22.10;33.23;101428.38;5073584;28;20044;-90
2021/05/18 15:04:44;;;;;;;4.15;1.02;;;;;;;22.11;33.95;101422.88;5069687;28;20035;-90
2021/05/18 15:07:10;;;;;;;4.22;1.05;;;;;;;22.31;33.55;101415.41;5069451;28;20099;-88
2021/05/18 15:09:39;;;;;;;3.58;1.60;;;;;;;22.13;33.58;101436.28;5070176;28;20071;-89
2021/05/18 15:12:07;;;;;;;1.70;1.15;;;;;;;21.88;33.62;101426.97;5067391;28;20111;-77
2021/05/18 15:14:34;;;;;;;3.42;0.77;;;;;;;22.09;34.03;101430.22;5069323;28;20021;-87
2021/05/18 15:17:01;;;;;;;2.70;0.70;;;;;;;21.91;34.08;101434.84;5068787;28;20028;-88
2021/05/18 15:19:29;;;;;;;2.05;0.80;;;;;;;22.09;34.17;101426.63;5068395;28;20086;-82
2021/05/18 15:21:58;;;;;;;4.07;1.00;;;;;;;22.17;33.85;101426.16;5070404;28;20029;-86
2021/05/18 15:24:25;;;;;;;3.78;0.88;;;;;;;22.02;33.61;101433.34;5074092;28;20573;-86
2021/05/18 15:26:52;;;;;;;0.70;0.57;;;;;;;22.01;33.90;101428.91;5071274;28;20064;-85
2021/05/18 15:29:21;;;;;;;1.85;0.77;;;;;;;22.02;34.70;101445.03;5075413;28;20024;-92
2021/05/18 15:31:47;;;;;;;1.90;0.80;;;;;;;22.11;34.03;101443.59;5070874;28;20037;-91
2021/05/18 15:34:13;;;;;;;1.80;0.95;;;;;;;21.98;33.49;101440.75;5069315;28;20029;-86
2021/05/18 15:36:49;;;;;;;2.55;0.85;;;;;;;22.00;33.34;101440.69;5073811;28;20499;-90
2021/05/18 15:39:15;;;;;;;4.97;1.02;;;;;;;22.16;33.73;101440.63;5070863;28;20021;-92
2021/05/18 15:41:43;;;;;;;1.42;0.70;;;;;;;22.46;34.11;101452.31;5069956;28;20061;-87
2021/05/18 15:44:09;;;;;;;1.85;0.80;;;;;;;22.50;33.07;101438.63;5069901;28;20040;-88
2021/05/18 15:46:44;;;;;;;1.13;0.65;;;;;;;22.74;32.69;101438.94;5066397;28;20041;-88
2021/05/18 15:49:12;;;;;;;2.67;0.80;;;;;;;22.79;32.53;101444.94;5080296;28;20193;-79
2021/05/18 15:51:40;;;;;;;14.13;8.38;;;;;;;22.97;32.13;101452.84;5047422;28;20036;-89
2021/05/18 15:54:08;;;;;;;3.72;1.60;;;;;;;22.81;31.79;101451.13;5054200;28;20029;-96
2021/05/18 15:56:36;;;;;;;3.35;1.73;;;;;;;22.73;32.13;101454.28;5041527;28;20037;-84
2021/05/18 15:59:03;;;;;;;2.92;1.20;;;;;;;22.69;32.04;101454.56;5052875;28;20029;-82
2021/05/18 16:01:29;;;;;;;2.28;1.20;;;;;;;22.66;32.60;101462.88;5049815;28;20100;-83
2021/05/18 16:03:55;;;;;;;3.67;1.20;;;;;;;22.60;32.69;101458.72;5058909;28;20044;-86
2021/05/18 16:06:22;;;;;;;1.75;1.33;;;;;;;22.49;32.70;101462.06;5055893;28;20029;-85
2021/05/18 16:11:40;;;;;;;4.22;1.52;;;;;;;22.53;32.51;101466.31;5072745;27;20433;-84
2021/05/18 16:14:06;;;;;;;3.00;1.27;;;;;;;22.62;32.58;101471.16;5066880;28;20035;-84
2021/05/18 16:16:33;;;;;;;1.52;1.20;;;;;;;22.81;32.26;101475.44;5065946;28;20021;-80
2021/05/18 16:19:00;;;;;;;2.60;1.60;;;;;;;22.73;32.03;101472.31;5066064;28;20029;-87
2021/05/18 16:21:28;;;;;;;2.75;1.42;;;;;;;22.85;31.76;101473.41;5067333;28;20384;-85
2021/05/18 16:23:58;;;;;;;1.83;1.40;;;;;;;22.84;31.87;101482.47;5063771;28;20087;-86
2021/05/18 16:26:27;;;;;;;3.88;1.65;;;;;;;22.99;31.48;101483.34;5066076;28;20045;-87
2021/05/18 16:28:54;;;;;;;1.42;1.15;;;;;;;22.93;31.13;101477.38;5063847;28;20083;-86
2021/05/18 16:31:23;;;;;;;6.07;2.17;;;;;;;23.06;30.53;101476.59;5069137;28;20048;-86
2021/05/18 16:33:51;;;;;;;2.85;1.10;;;;;;;23.18;31.10;101475.88;5064514;28;20586;-83
2021/05/18 16:36:21;;;;;;;3.92;1.25;;;;;;;23.21;30.91;101472.94;5075456;28;20108;-88
2021/05/18 16:39:11;;;;;;;3.58;1.35;;;;;;;23.27;30.65;101467.16;5062710;28;20056;-89
2021/05/18 16:41:40;;;;;;;3.60;1.17;;;;;;;23.31;30.44;101473.25;5055799;28;20045;-89
2021/05/18 16:44:10;;;;;;;3.05;1.35;;;;;;;23.57;30.69;101466.13;5059347;28;20048;-85
2021/05/18 16:46:38;;;;;;;2.30;1.15;;;;;;;23.73;30.40;101473.28;5059857;28;20032;-86
2021/05/18 16:49:06;;;;;;;1.40;1.05;;;;;;;23.77;29.91;101480.19;5066409;28;20029;-85
2021/05/18 16:51:34;;;;;;;3.92;1.27;;;;;;;23.93;29.60;101474.69;5066519;28;20108;-84
2021/05/18 16:54:04;;;;;;;6.47;3.65;;;;;;;24.00;29.60;101472.41;5063355;28;20108;-86